Time;durP1;ratioP1;P1;durP2;ratioP2;P2;SDS_P1;SDS_P2;PMS_P1;PMS_P2;Temp;Humidity;BMP_temperature;BMP_pressure;BME280_temperature;BME280_humidity;BME280_pressure;Samples;Min_cycle;Max_cycle;Signal;HPM_P1;HPM_P2
2022/12/17 13:07:21;;;;;;;8.30;5.43;;;16.90;33.90;;;;;;4986380;28;20046;-49
2022/12/17 13:09:50;;;;;;;4.20;3.80;;;17.00;33.70;;;;;;4986953;28;20047;-52
2022/12/17 13:12:24;;;;;;;3.33;3.13;;;16.90;33.60;;;;;;5004521;28;20128;-51
2022/12/17 13:14:58;;;;;;;2.65;2.45;;;17.00;33.60;;;;;;5005792;28;20054;-49
2022/12/17 13:17:31;;;;;;;4.57;3.22;;;17.00;33.60;;;;;;5005226;28;20042;-48
2022/12/17 13:20:25;;;;;;;3.40;3.10;;;17.10;33.70;;;;;;5005639;28;20079;-50
2022/12/17 13:23:04;;;;;;;4.50;2.95;;;17.20;33.60;;;;;;4988088;28;20131;-48
2022/12/17 13:25:31;;;;;;;3.25;2.42;;;17.20;33.60;;;;;;5005939;28;20054;-51
2022/12/17 13:27:58;;;;;;;3.78;3.42;;;17.30;33.60;;;;;;4991112;28;20050;-52
2022/12/17 13:30:34;;;;;;;4.53;2.90;;;17.40;33.60;;;;;;4985919;28;20088;-54
2022/12/17 13:33:21;;;;;;;3.13;2.80;;;17.40;33.50;;;;;;4987101;28;20129;-55
2022/12/17 13:36:03;;;;;;;3.35;2.65;;;17.50;33.40;;;;;;4986213;28;20052;-51
2022/12/17 13:38:40;;;;;;;2.85;2.65;;;17.60;33.40;;;;;;4985901;28;20410;-52
2022/12/17 13:41:10;;;;;;;2.05;1.95;;;17.60;33.30;;;;;;4985824;28;20589;-52
2022/12/17 13:43:43;;;;;;;3.80;2.53;;;17.70;33.20;;;;;;4985868;28;20046;-49
2022/12/17 13:46:19;;;;;;;3.53;2.13;;;17.70;33.10;;;;;;4985336;28;20198;-50
2022/12/17 13:48:53;;;;;;;3.90;3.35;;;17.80;33.10;;;;;;4985444;28;20125;-49
2022/12/17 13:51:23;;;;;;;2.45;2.05;;;17.80;33.60;;;;;;4985525;28;20043;-51
2022/12/17 13:53:54;;;;;;;3.70;2.78;;;17.90;33.00;;;;;;4985626;28;20050;-48
2022/12/17 13:56:26;;;;;;;2.50;2.28;;;17.90;32.90;;;;;;4993105;28;20140;-52
2022/12/17 13:58:55;;;;;;;3.17;2.47;;;18.00;32.90;;;;;;5005273;28;20136;-49
2022/12/17 14:01:24;;;;;;;4.32;2.35;;;18.00;32.80;;;;;;5004808;28;20045;-48
2022/12/17 14:03:54;;;;;;;3.72;2.95;;;18.10;32.70;;;;;;5005054;28;20046;-54
2022/12/17 14:06:24;;;;;;;3.92;2.83;;;18.10;32.60;;;;;;5005071;28;20133;-51
2022/12/17 14:08:54;;;;;;;3.88;2.47;;;18.20;32.60;;;;;;5004800;28;20060;-50
2022/12/17 14:14:16;;;;;;;3.40;3.10;;;18.20;32.40;;;;;;5004378;28;20050;-53
2022/12/17 14:16:44;;;;;;;4.28;2.78;;;18.30;32.30;;;;;;5004872;28;20050;-49
2022/12/17 14:19:11;;;;;;;4.15;2.80;;;18.30;32.30;;;;;;5004986;28;20504;-51
2022/12/17 14:21:40;;;;;;;6.78;4.55;;;18.30;32.30;;;;;;5004862;28;20119;-54
2022/12/17 14:24:10;;;;;;;6.28;4.68;;;18.40;32.10;;;;;;5004971;28;20442;-53
2022/12/17 14:26:48;;;;;;;10.93;6.68;;;18.30;31.60;;;;;;5005299;28;20058;-49
2022/12/17 14:29:15;;;;;;;8.65;6.50;;;18.30;31.00;;;;;;4986612;28;20065;-51
2022/12/17 14:31:53;;;;;;;9.55;5.72;;;18.30;30.80;;;;;;5004838;28;20171;-52
2022/12/17 14:34:21;;;;;;;9.00;5.90;;;18.30;30.50;;;;;;4995377;28;20104;-52
2022/12/17 14:36:56;;;;;;;4.75;4.25;;;18.20;30.60;;;;;;4985154;28;20050;-51
2022/12/17 14:39:26;;;;;;;4.28;3.60;;;18.20;30.70;;;;;;4984993;28;20091;-53
2022/12/17 14:44:50;;;;;;;4.25;3.85;;;18.10;30.80;;;;;;4977799;28;20042;-52
2022/12/17 14:47:20;;;;;;;4.85;1.90;;;18.00;31.00;;;;;;5001014;28;20042;-52
2022/12/17 14:49:56;;;;;;;2.55;2.33;;;18.00;31.20;;;;;;4992035;28;20055;-53
2022/12/17 14:52:40;;;;;;;2.75;2.40;;;17.90;31.30;;;;;;4985681;28;20051;-53
2022/12/17 14:55:30;;;;;;;2.60;2.10;;;17.90;31.40;;;;;;4985206;28;20062;-49
2022/12/17 14:58:09;;;;;;;3.50;2.00;;;17.80;31.40;;;;;;4984350;28;20519;-54
2022/12/17 15:00:38;;;;;;;3.47;2.25;;;17.80;31.60;;;;;;4967237;28;20503;-50
2022/12/17 15:03:05;;;;;;;3.70;3.33;;;17.70;31.70;;;;;;4984750;28;20042;-50
2022/12/17 15:05:32;;;;;;;2.33;1.92;;;17.60;31.70;;;;;;4984691;28;20050;-54
2022/12/17 15:08:01;;;;;;;4.72;2.45;;;17.60;31.70;;;;;;4984747;28;20471;-50
2022/12/17 15:10:28;;;;;;;2.70;2.47;;;17.50;31.80;;;;;;4984700;28;20039;-49
2022/12/17 15:12:55;;;;;;;5.40;2.45;;;17.40;31.80;;;;;;4984357;28;20042;-49
2022/12/17 15:15:22;;;;;;;4.10;2.38;;;17.40;31.90;;;;;;4984562;28;20477;-51
2022/12/17 15:17:49;;;;;;;2.72;1.92;;;17.30;31.90;;;;;;4997737;28;20046;-52
2022/12/17 15:20:18;;;;;;;4.22;2.90;;;17.30;32.10;;;;;;5015100;28;20395;-54
2022/12/17 15:22:45;;;;;;;3.25;1.63;;;17.20;32.10;;;;;;4990678;28;20046;-49
2022/12/17 15:25:16;;;;;;;2.78;1.80;;;17.20;32.20;;;;;;4987656;28;20041;-51
2022/12/17 15:27:44;;;;;;;2.10;1.65;;;17.20;32.30;;;;;;4987582;28;20556;-49
2022/12/17 15:30:14;;;;;;;2.97;2.15;;;17.00;32.30;;;;;;4987889;28;20047;-49
2022/12/17 15:32:42;;;;;;;4.88;2.05;;;17.00;32.30;;;;;;5005816;28;20091;-50
2022/12/17 15:35:10;;;;;;;2.65;2.45;;;17.00;32.40;;;;;;5007514;28;20038;-51
2022/12/17 15:37:37;;;;;;;3.55;2.50;;;16.90;32.50;;;;;;4989668;28;20121;-50
2022/12/17 15:40:04;;;;;;;3.97;2.30;;;16.90;32.60;;;;;;5007290;28;20050;-51
2022/12/17 15:45:18;;;;;;;3.78;2.72;;;16.80;32.70;;;;;;4990019;28;20477;-50
2022/12/17 15:47:45;;;;;;;2.65;2.42;;;16.70;32.70;;;;;;5007194;28;20066;-50
2022/12/17 15:50:12;;;;;;;3.53;2.33;;;16.70;32.80;;;;;;5007064;28;20042;-51
2022/12/17 15:52:39;;;;;;;2.15;1.63;;;16.60;32.80;;;;;;5007160;28;20137;-49
2022/12/17 15:55:07;;;;;;;3.42;1.73;;;16.60;32.90;;;;;;5007141;28;20470;-50
2022/12/17 15:57:35;;;;;;;2.50;1.63;;;16.60;32.90;;;;;;5006640;28;20053;-54
2022/12/17 16:00:02;;;;;;;2.33;2.13;;;16.50;32.90;;;;;;5006987;28;20084;-52
2022/12/17 16:02:32;;;;;;;2.78;2.08;;;16.50;33.00;;;;;;5006990;28;20131;-52
2022/12/17 16:04:59;;;;;;;4.45;2.25;;;16.50;33.10;;;;;;5006731;28;20057;-55
2022/12/17 16:07:26;;;;;;;3.25;1.40;;;16.40;33.70;;;;;;5006931;28;20042;-54
2022/12/17 16:09:53;;;;;;;3.42;2.25;;;16.40;33.20;;;;;;5006622;28;20077;-54
2022/12/17 16:12:20;;;;;;;3.67;1.75;;;16.40;33.20;;;;;;4991195;28;20038;-52
2022/12/17 16:14:49;;;;;;;2.70;1.52;;;16.30;33.20;;;;;;4987406;28;20400;-51
2022/12/17 16:17:16;;;;;;;3.67;2.33;;;16.30;33.30;;;;;;4995934;28;20059;-53
2022/12/17 16:19:43;;;;;;;3.42;1.05;;;16.30;33.30;;;;;;5006628;28;20070;-48
2022/12/17 16:22:10;;;;;;;2.78;1.85;;;16.20;33.30;;;;;;5006571;28;20038;-52
2022/12/17 16:24:37;;;;;;;3.17;2.40;;;16.20;33.40;;;;;;5006290;28;20548;-51
2022/12/17 16:27:04;;;;;;;2.20;2.03;;;16.20;33.40;;;;;;5006541;28;20056;-54
2022/12/17 16:29:31;;;;;;;2.13;1.40;;;16.20;33.50;;;;;;5006399;28;20533;-50
2022/12/17 16:32:00;;;;;;;2.47;1.65;;;16.10;34.10;;;;;;5006382;28;20508;-50
2022/12/17 16:34:27;;;;;;;2.22;1.35;;;16.10;33.50;;;;;;5006795;28;20868;-50
2022/12/17 16:36:54;;;;;;;3.55;1.55;;;16.10;33.60;;;;;;5005571;28;20049;-53
2022/12/17 16:39:22;;;;;;;3.58;1.98;;;16.10;33.60;;;;;;5006092;28;20074;-52
2022/12/17 16:41:49;;;;;;;1.50;1.40;;;16.10;33.60;;;;;;5006456;28;20042;-53
2022/12/17 16:44:16;;;;;;;1.80;1.70;;;16.00;33.60;;;;;;5006267;28;20042;-50
2022/12/17 16:46:45;;;;;;;2.65;1.83;;;16.00;33.70;;;;;;5006293;28;20037;-50
2022/12/17 16:49:15;;;;;;;2.33;1.42;;;16.00;33.70;;;;;;5006445;28;20052;-50
2022/12/17 16:51:43;;;;;;;4.05;1.73;;;16.00;34.30;;;;;;4988712;28;20050;-54
2022/12/17 16:54:13;;;;;;;2.60;1.85;;;16.00;33.80;;;;;;4988295;28;20095;-49
2022/12/17 16:56:41;;;;;;;2.47;1.40;;;15.90;33.70;;;;;;5006189;28;20129;-53
2022/12/17 16:59:09;;;;;;;3.17;2.17;;;15.90;33.80;;;;;;5006462;28;20056;-53
2022/12/17 17:01:37;;;;;;;1.95;1.75;;;15.90;33.80;;;;;;4986674;28;20481;-52
2022/12/17 17:04:04;;;;;;;1.77;1.67;;;15.90;33.80;;;;;;4986596;28;20034;-54
2022/12/17 17:06:37;;;;;;;1.77;1.15;;;15.90;33.80;;;;;;4986418;28;20123;-52
2022/12/17 17:09:05;;;;;;;2.70;1.48;;;15.90;33.80;;;;;;4986188;28;20074;-52
2022/12/17 17:11:32;;;;;;;2.80;1.60;;;15.90;33.90;;;;;;4986612;28;20046;-48
2022/12/17 17:13:59;;;;;;;5.22;1.63;;;15.90;33.90;;;;;;4986570;28;20111;-52
2022/12/17 17:16:26;;;;;;;3.63;1.50;;;15.90;33.90;;;;;;4988922;28;20042;-50
2022/12/17 17:18:54;;;;;;;2.50;1.50;;;15.90;33.90;;;;;;5005718;28;20555;-52
2022/12/17 17:21:27;;;;;;;2.40;1.92;;;15.90;33.90;;;;;;5019041;28;20079;-49
2022/12/17 17:23:58;;;;;;;1.40;0.95;;;15.90;33.90;;;;;;5003239;28;20042;-55
2022/12/17 17:26:27;;;;;;;2.58;1.88;;;15.90;33.90;;;;;;4988456;28;20045;-50
2022/12/17 17:28:54;;;;;;;2.65;1.58;;;15.80;33.90;;;;;;5005758;28;20050;-48
2022/12/17 17:31:22;;;;;;;4.13;1.75;;;15.90;33.90;;;;;;5005538;28;20054;-53
2022/12/17 17:33:51;;;;;;;1.58;1.48;;;15.80;33.90;;;;;;5005577;28;20158;-51
2022/12/17 17:36:20;;;;;;;3.65;1.80;;;15.80;34.50;;;;;;5005648;28;20805;-53
2022/12/17 17:38:49;;;;;;;1.90;0.98;;;15.80;33.90;;;;;;5005082;28;20558;-52
2022/12/17 17:41:19;;;;;;;2.72;2.45;;;15.80;33.90;;;;;;4990195;28;20038;-52
2022/12/17 17:43:46;;;;;;;2.35;1.65;;;15.80;33.90;;;;;;4985804;28;20135;-50
2022/12/17 17:46:16;;;;;;;2.15;1.40;;;15.80;33.90;;;;;;4986329;28;20510;-51
2022/12/17 17:48:44;;;;;;;3.00;1.75;;;15.90;34.00;;;;;;5000523;28;20039;-54
2022/12/17 17:51:13;;;;;;;4.78;1.80;;;15.80;33.90;;;;;;4986151;28;20073;-52
2022/12/17 17:53:41;;;;;;;4.65;1.48;;;15.80;33.90;;;;;;4985267;28;20145;-51
2022/12/17 17:56:13;;;;;;;2.08;1.20;;;15.80;33.90;;;;;;4985704;28;20069;-50
2022/12/17 17:58:43;;;;;;;2.83;2.00;;;15.80;34.00;;;;;;4985725;28;20064;-49
2022/12/17 18:01:12;;;;;;;3.50;2.25;;;15.80;33.90;;;;;;4985819;28;20114;-49
2022/12/17 18:03:40;;;;;;;2.15;2.05;;;15.80;34.00;;;;;;4986315;28;20042;-52
2022/12/17 18:06:09;;;;;;;4.18;2.10;;;15.80;34.00;;;;;;4968850;28;20042;-54
2022/12/17 18:08:37;;;;;;;3.15;2.20;;;15.80;34.00;;;;;;4986384;28;20042;-53
2022/12/17 18:11:07;;;;;;;2.63;2.25;;;15.80;34.00;;;;;;4986122;28;20045;-52
2022/12/17 18:16:21;;;;;;;2.33;1.33;;;15.80;34.00;;;;;;4987177;28;20053;-53
2022/12/17 18:18:49;;;;;;;5.57;2.08;;;15.80;34.00;;;;;;5004767;28;20053;-50
2022/12/17 18:21:18;;;;;;;3.53;1.75;;;15.80;34.00;;;;;;5004719;28;20121;-52
2022/12/17 18:23:46;;;;;;;3.47;2.75;;;15.80;34.00;;;;;;5004642;28;20084;-49
2022/12/17 18:26:15;;;;;;;3.80;1.98;;;15.80;34.00;;;;;;5004704;28;20887;-51
2022/12/17 18:28:43;;;;;;;4.03;2.60;;;15.80;34.00;;;;;;5004777;28;20182;-49
2022/12/17 18:31:12;;;;;;;2.33;2.13;;;15.80;34.00;;;;;;5004735;28;20109;-50
2022/12/17 18:33:42;;;;;;;4.15;1.67;;;15.80;34.00;;;;;;5004723;28;20054;-49
2022/12/17 18:36:11;;;;;;;2.80;1.58;;;15.80;34.00;;;;;;5005337;28;20144;-54
2022/12/17 18:38:39;;;;;;;6.10;2.17;;;15.80;34.00;;;;;;4986160;28;20057;-53
2022/12/17 18:43:56;;;;;;;5.55;1.90;;;15.80;34.00;;;;;;4985291;28;20172;-51
2022/12/17 18:46:23;;;;;;;5.50;3.05;;;15.70;34.00;;;;;;4987148;28;20149;-50
2022/12/17 18:48:52;;;;;;;3.50;2.67;;;15.70;34.00;;;;;;5004748;28;20057;-54
2022/12/17 18:51:21;;;;;;;4.50;2.45;;;15.80;34.00;;;;;;5004589;28;20042;-53
2022/12/17 18:53:48;;;;;;;4.47;2.42;;;15.70;34.10;;;;;;5004427;28;20506;-53
2022/12/17 18:56:16;;;;;;;3.42;2.95;;;15.70;34.00;;;;;;5004683;28;20056;-51
2022/12/17 18:58:43;;;;;;;4.68;3.03;;;15.70;34.00;;;;;;5005877;28;20054;-52
2022/12/17 19:01:19;;;;;;;4.22;2.38;;;15.70;34.10;;;;;;5008479;28;20433;-52
2022/12/17 19:03:46;;;;;;;4.70;3.03;;;15.80;34.10;;;;;;5008081;28;20095;-51
2022/12/17 19:06:14;;;;;;;3.85;2.45;;;15.70;34.00;;;;;;5008372;28;20076;-51
2022/12/17 19:08:41;;;;;;;4.95;2.53;;;15.70;34.00;;;;;;5008328;28;20081;-54
2022/12/17 19:11:17;;;;;;;6.55;2.88;;;15.70;34.00;;;;;;5007875;28;20505;-49
2022/12/17 19:13:45;;;;;;;4.38;2.33;;;15.70;34.10;;;;;;4990138;28;20462;-52
2022/12/17 19:16:14;;;;;;;5.72;3.03;;;15.70;34.10;;;;;;5007869;28;20148;-54
2022/12/17 19:18:42;;;;;;;3.45;2.97;;;15.70;34.10;;;;;;5007312;28;20091;-53
2022/12/17 19:21:13;;;;;;;3.83;3.08;;;15.70;34.10;;;;;;5022098;28;20048;-52
2022/12/17 19:23:42;;;;;;;5.65;3.30;;;15.70;34.10;;;;;;4993712;28;20042;-53
2022/12/17 19:26:11;;;;;;;4.20;2.67;;;15.70;34.10;;;;;;4987834;28;20141;-51
2022/12/17 19:28:40;;;;;;;6.50;3.42;;;15.70;34.10;;;;;;4988087;28;20050;-52
2022/12/17 19:31:07;;;;;;;4.78;2.63;;;15.70;34.10;;;;;;4998598;28;20046;-49
2022/12/17 19:33:36;;;;;;;4.25;2.83;;;15.70;34.10;;;;;;5026770;28;20152;-51
2022/12/17 19:36:06;;;;;;;5.78;3.45;;;15.70;34.10;;;;;;5027177;28;20040;-53
2022/12/17 19:38:34;;;;;;;5.65;2.75;;;15.70;34.10;;;;;;5027897;28;20045;-52
2022/12/17 19:41:07;;;;;;;4.78;3.17;;;15.70;34.10;;;;;;5028955;28;20129;-51
2022/12/17 19:43:34;;;;;;;3.40;2.67;;;15.70;34.10;;;;;;5008349;28;20459;-52
2022/12/17 19:46:03;;;;;;;3.90;2.92;;;15.70;34.70;;;;;;5026811;28;20045;-51
2022/12/17 19:48:31;;;;;;;4.63;3.03;;;15.70;34.10;;;;;;5007469;28;20053;-49
2022/12/17 19:50:59;;;;;;;5.13;3.28;;;15.70;34.10;;;;;;5007435;28;20034;-50
2022/12/17 19:53:27;;;;;;;5.20;2.95;;;15.70;34.10;;;;;;4989485;28;20049;-49
2022/12/17 19:55:54;;;;;;;5.35;3.72;;;15.70;34.10;;;;;;5006935;28;20115;-50
2022/12/17 19:58:24;;;;;;;4.07;3.05;;;15.70;34.10;;;;;;5007148;28;20065;-53
2022/12/17 20:00:51;;;;;;;3.80;3.17;;;15.70;34.10;;;;;;4989646;28;20484;-50
2022/12/17 20:03:19;;;;;;;5.13;3.03;;;15.70;34.10;;;;;;5006791;28;20049;-50
2022/12/17 20:05:46;;;;;;;2.95;1.95;;;15.70;34.10;;;;;;5007077;28;20536;-52
2022/12/17 20:08:14;;;;;;;4.47;2.97;;;15.70;34.10;;;;;;5006847;28;20096;-53
2022/12/17 20:10:41;;;;;;;3.40;3.10;;;15.70;34.10;;;;;;5006048;28;20038;-49
2022/12/17 20:13:08;;;;;;;5.28;2.45;;;15.70;34.10;;;;;;5006244;28;20045;-51
2022/12/17 20:15:37;;;;;;;3.63;3.00;;;15.70;34.10;;;;;;4969942;28;20049;-49
2022/12/17 20:18:04;;;;;;;4.10;3.13;;;15.70;34.00;;;;;;5002132;28;20045;-54
2022/12/17 20:20:31;;;;;;;3.47;2.55;;;15.70;34.00;;;;;;4987438;28;20077;-49
2022/12/17 20:22:58;;;;;;;3.25;2.25;;;15.70;34.10;;;;;;4987268;28;20069;-54
2022/12/17 20:25:25;;;;;;;4.32;2.88;;;15.60;34.00;;;;;;4987077;28;20053;-51
2022/12/17 20:27:53;;;;;;;3.40;3.10;;;15.60;34.00;;;;;;4987050;28;20046;-51
2022/12/17 20:30:20;;;;;;;3.95;2.33;;;15.60;34.00;;;;;;4987114;28;20046;-53
2022/12/17 20:32:52;;;;;;;4.72;2.45;;;15.60;34.00;;;;;;5005483;28;20038;-51
2022/12/17 20:35:19;;;;;;;3.88;2.30;;;15.70;34.00;;;;;;5006834;28;20045;-53
2022/12/17 20:37:46;;;;;;;3.35;3.08;;;15.60;34.00;;;;;;5006756;28;20046;-54
2022/12/17 20:40:13;;;;;;;4.07;2.28;;;15.60;34.60;;;;;;5006578;28;20066;-52
2022/12/17 20:42:40;;;;;;;5.32;2.67;;;15.60;34.00;;;;;;5006529;28;20055;-50
2022/12/17 20:45:08;;;;;;;3.97;2.63;;;15.60;34.00;;;;;;5006655;28;20045;-51
2022/12/17 20:47:35;;;;;;;5.07;3.70;;;15.60;34.00;;;;;;5006050;28;20589;-53
2022/12/17 20:50:05;;;;;;;3.42;2.58;;;15.60;34.00;;;;;;5006407;28;20068;-50
2022/12/17 20:52:32;;;;;;;3.70;3.30;;;15.60;34.00;;;;;;5006594;28;20131;-50
2022/12/17 20:54:59;;;;;;;5.45;3.05;;;15.60;34.60;;;;;;5006363;28;20053;-53
2022/12/17 20:57:26;;;;;;;3.88;2.72;;;15.60;34.00;;;;;;5006221;28;20131;-49
2022/12/17 20:59:53;;;;;;;4.65;3.28;;;15.60;33.90;;;;;;5006107;28;20102;-52
2022/12/17 21:02:20;;;;;;;7.30;3.00;;;15.60;34.00;;;;;;4981857;28;20589;-51
2022/12/17 21:04:48;;;;;;;5.28;3.13;;;15.60;33.90;;;;;;4986580;28;20117;-53
2022/12/17 21:07:16;;;;;;;6.97;3.65;;;15.60;33.90;;;;;;4986622;28;20053;-51
2022/12/17 21:09:43;;;;;;;5.40;3.88;;;15.60;33.90;;;;;;4986399;28;20049;-49
2022/12/17 21:12:12;;;;;;;4.75;3.30;;;15.60;33.90;;;;;;4986647;28;20049;-50
2022/12/17 21:14:39;;;;;;;4.38;3.20;;;15.60;33.90;;;;;;4968959;28;20054;-53
2022/12/17 21:17:06;;;;;;;6.07;2.67;;;15.60;33.90;;;;;;4994359;28;20046;-49
2022/12/17 21:19:33;;;;;;;5.00;2.88;;;15.60;33.90;;;;;;5005721;28;20919;-51
2022/12/17 21:22:00;;;;;;;4.57;3.17;;;15.60;33.90;;;;;;5019640;28;20042;-48
2022/12/17 21:24:28;;;;;;;3.78;3.45;;;15.60;33.90;;;;;;5006014;28;20569;-51
2022/12/17 21:26:55;;;;;;;4.32;3.25;;;15.60;33.90;;;;;;5005841;28;20038;-51
2022/12/17 21:29:22;;;;;;;2.85;2.50;;;15.60;33.90;;;;;;4989515;28;20141;-50
2022/12/17 21:31:51;;;;;;;6.00;3.03;;;15.60;33.90;;;;;;4997544;28;20053;-51
2022/12/17 21:34:21;;;;;;;5.18;2.95;;;15.60;33.90;;;;;;5007340;28;20046;-53
2022/12/17 21:36:49;;;;;;;4.28;3.75;;;15.60;33.90;;;;;;5007327;28;20044;-54
2022/12/17 21:39:16;;;;;;;3.67;3.13;;;15.60;33.90;;;;;;5006523;28;20152;-54
2022/12/17 21:43:00;;;;;;;3.15;2.88;;;15.60;33.90;;;;;;5006192;28;20049;-52
2022/12/17 21:44:32;;;;;;;6.70;3.28;;;15.60;33.80;;;;;;5005227;28;20076;-51
2022/12/17 21:47:00;;;;;;;5.72;3.67;;;15.60;33.80;;;;;;5005516;28;20077;-50
2022/12/17 21:49:28;;;;;;;5.82;3.55;;;15.60;33.80;;;;;;5005533;28;20057;-53
2022/12/17 21:51:57;;;;;;;4.50;2.70;;;15.60;33.80;;;;;;5005477;28;20049;-53
2022/12/17 21:54:25;;;;;;;4.85;2.65;;;15.60;33.80;;;;;;5005439;28;20134;-50
2022/12/17 21:56:53;;;;;;;3.72;3.17;;;15.60;33.80;;;;;;5005358;28;20052;-52
2022/12/17 21:59:20;;;;;;;6.65;3.03;;;15.60;33.80;;;;;;5004828;28;20050;-51
2022/12/17 22:01:47;;;;;;;6.38;3.80;;;15.60;33.80;;;;;;5005279;28;20038;-49
2022/12/17 22:04:14;;;;;;;6.53;3.90;;;15.60;33.80;;;;;;5005220;28;20145;-53
2022/12/17 22:06:42;;;;;;;4.03;2.72;;;15.60;33.80;;;;;;5005094;28;20430;-49
2022/12/17 22:09:10;;;;;;;3.83;3.20;;;15.60;33.80;;;;;;5005335;28;20075;-51
2022/12/17 22:11:37;;;;;;;3.75;3.20;;;15.60;33.80;;;;;;5005056;28;20050;-54
2022/12/17 22:14:05;;;;;;;3.50;2.47;;;15.60;34.40;;;;;;5004662;28;20094;-51
2022/12/17 22:16:35;;;;;;;4.93;2.78;;;15.60;33.80;;;;;;5005184;28;20087;-51
2022/12/17 22:19:07;;;;;;;8.82;3.03;;;15.60;33.80;;;;;;5004687;28;20045;-52
2022/12/17 22:21:35;;;;;;;3.30;1.85;;;15.60;33.80;;;;;;5005039;28;20041;-53
2022/12/17 22:24:03;;;;;;;5.57;3.75;;;15.60;33.90;;;;;;5004985;28;20049;-54
2022/12/17 22:26:32;;;;;;;10.30;5.25;;;15.60;33.90;;;;;;5005366;28;20124;-50
2022/12/17 22:29:00;;;;;;;6.63;3.92;;;15.60;33.90;;;;;;5004791;28;20049;-53
2022/12/17 22:34:27;;;;;;;3.30;2.78;;;15.60;33.80;;;;;;4943293;28;20563;-50
2022/12/17 22:36:54;;;;;;;4.97;3.15;;;15.60;33.80;;;;;;4944022;28;20139;-54
2022/12/17 22:39:21;;;;;;;7.80;3.50;;;15.60;33.80;;;;;;4943726;28;20089;-53
2022/12/17 22:44:33;;;;;;;5.30;3.10;;;15.60;33.80;;;;;;4944387;29;20062;-49
2022/12/17 22:47:02;;;;;;;5.88;3.25;;;15.60;33.70;;;;;;4943969;28;20059;-50
2022/12/17 22:49:29;;;;;;;7.30;3.78;;;15.60;33.80;;;;;;4943917;29;20129;-51
2022/12/17 22:51:56;;;;;;;4.43;2.80;;;15.60;33.70;;;;;;4943837;29;20146;-54
2022/12/17 22:54:23;;;;;;;3.60;3.30;;;15.60;33.70;;;;;;4944063;28;20082;-50
2022/12/17 22:56:50;;;;;;;4.47;3.72;;;15.50;33.70;;;;;;4943493;29;20487;-49
2022/12/17 22:59:18;;;;;;;5.07;3.13;;;15.50;33.60;;;;;;4943732;28;20098;-53
2022/12/17 23:01:46;;;;;;;4.65;3.53;;;15.50;33.70;;;;;;4944035;28;20059;-51
2022/12/17 23:04:15;;;;;;;5.20;4.18;;;15.60;33.70;;;;;;4943654;28;20055;-54
2022/12/17 23:06:44;;;;;;;5.22;3.13;;;15.50;33.70;;;;;;4984843;28;20054;-51
2022/12/17 23:09:11;;;;;;;7.20;4.22;;;15.50;33.70;;;;;;4984726;28;20050;-53
2022/12/17 23:11:39;;;;;;;4.55;2.90;;;15.50;33.70;;;;;;4985922;28;20131;-52
2022/12/17 23:14:07;;;;;;;6.93;3.63;;;15.50;33.70;;;;;;4986912;28;20501;-53
2022/12/17 23:16:37;;;;;;;7.50;3.92;;;15.50;33.70;;;;;;4986586;28;20117;-49
2022/12/17 23:19:05;;;;;;;4.72;3.85;;;15.50;33.60;;;;;;5018289;28;20054;-50
2022/12/17 23:21:33;;;;;;;4.20;3.30;;;15.50;33.70;;;;;;5004602;28;20045;-51
2022/12/17 23:24:00;;;;;;;5.55;3.45;;;15.50;33.60;;;;;;5004599;28;20558;-50
2022/12/17 23:26:30;;;;;;;5.88;4.03;;;15.40;33.60;;;;;;5004020;28;20048;-50
2022/12/17 23:29:00;;;;;;;7.50;3.60;;;15.40;33.60;;;;;;4997234;28;20560;-49
2022/12/17 23:31:31;;;;;;;5.72;4.40;;;15.40;33.60;;;;;;4992642;28;20510;-54
2022/12/17 23:33:58;;;;;;;7.18;3.80;;;15.40;33.60;;;;;;5004213;28;20441;-55
2022/12/17 23:36:26;;;;;;;6.85;4.88;;;15.40;33.60;;;;;;5000393;28;20061;-55
2022/12/17 23:38:56;;;;;;;4.60;3.15;;;15.40;33.60;;;;;;4984582;28;20054;-53
2022/12/17 23:41:25;;;;;;;5.72;3.58;;;15.40;33.60;;;;;;4984251;28;20218;-53
2022/12/17 23:43:52;;;;;;;4.20;3.13;;;15.40;33.60;;;;;;4984612;28;20573;-51
2022/12/17 23:46:20;;;;;;;5.63;3.25;;;15.40;33.60;;;;;;4989198;28;20049;-53
2022/12/17 23:48:48;;;;;;;6.40;3.80;;;15.30;33.60;;;;;;5007357;28;20038;-51
2022/12/17 23:51:17;;;;;;;5.85;3.45;;;15.30;33.60;;;;;;5007440;28;20115;-50
2022/12/17 23:53:45;;;;;;;6.35;3.20;;;15.30;33.60;;;;;;5007620;28;20076;-52
2022/12/17 23:56:20;;;;;;;6.60;4.20;;;15.30;33.60;;;;;;5006770;28;20045;-55
2022/12/17 23:58:47;;;;;;;9.00;3.78;;;15.30;33.60;;;;;;5007051;28;20046;-52
